Time;durP1;ratioP1;P1;durP2;ratioP2;P2;SDS_P1;SDS_P2;PMS_P1;PMS_P2;Temp;Humidity;BMP_temperature;BMP_pressure;BME280_temperature;BME280_humidity;BME280_pressure;Samples;Min_cycle;Max_cycle;Signal;HPM_P1;HPM_P2
2022/11/14 00:03:09;;;;;;;0.00;0.00;;;;;;;14.80;100.00;100216.75;10091721;28;96791;-74
2022/11/14 00:08:21;;;;;;;2.42;0.40;;;;;;;14.75;100.00;100220.47;10090559;28;96903;-74
2022/11/14 00:13:24;;;;;;;0.95;0.40;;;;;;;14.72;100.00;100228.50;10095428;28;97065;-74
2022/11/14 00:18:27;;;;;;;0.30;0.20;;;;;;;14.65;100.00;100245.53;10098086;28;96676;-74
2022/11/14 00:23:32;;;;;;;2.00;0.60;;;;;;;14.60;100.00;100244.91;10097557;28;96834;-74
2022/11/14 00:28:35;;;;;;;0.68;0.32;;;;;;;14.63;100.00;100252.66;10096749;28;96779;-74
2022/11/14 00:33:39;;;;;;;2.20;0.60;;;;;;;14.59;100.00;100261.63;10097990;28;96675;-74
2022/11/14 00:38:43;;;;;;;1.63;0.52;;;;;;;14.57;100.00;100263.47;10097223;28;97031;-74
2022/11/14 00:43:46;;;;;;;3.58;0.60;;;;;;;14.55;100.00;100254.81;10097073;28;97285;-74
2022/11/14 00:48:49;;;;;;;3.38;0.93;;;;;;;14.53;100.00;100259.28;10097675;28;96965;-74
2022/11/14 00:53:54;;;;;;;3.25;0.70;;;;;;;14.58;100.00;100262.56;10097164;28;96847;-74
2022/11/14 00:58:57;;;;;;;2.65;0.80;;;;;;;14.57;100.00;100255.56;10096197;28;96783;-74
2022/11/14 01:04:00;;;;;;;1.48;0.45;;;;;;;14.55;100.00;100250.38;10057111;28;96687;-74
2022/11/14 01:09:05;;;;;;;3.30;0.70;;;;;;;14.52;100.00;100255.81;10057658;28;97241;-74
2022/11/14 01:14:08;;;;;;;;;;;;;;;14.47;100.00;100256.94;10057549;28;96836;-74
2022/11/14 01:19:11;;;;;;;3.85;0.80;;;;;;;14.47;100.00;100254.31;10057554;28;97599;-74
2022/11/14 01:24:16;;;;;;;2.58;0.70;;;;;;;14.45;100.00;100248.28;10055831;28;96909;-74
2022/11/14 01:29:19;;;;;;;3.63;0.90;;;;;;;14.48;100.00;100248.13;10056498;28;96760;-74
2022/11/14 01:34:22;;;;;;;4.72;0.95;;;;;;;14.46;100.00;100247.38;10057031;28;97508;-74
2022/11/14 01:39:27;;;;;;;4.57;1.10;;;;;;;14.45;100.00;100243.03;10056754;28;97307;-74
2022/11/14 01:44:48;;;;;;;4.85;0.88;;;;;;;14.43;100.00;100244.88;10075858;28;96915;-74
2022/11/14 01:49:57;;;;;;;3.53;1.20;;;;;;;14.42;100.00;100248.41;10094940;28;97445;-74
2022/11/14 01:55:06;;;;;;;2.67;1.10;;;;;;;14.41;100.00;100249.38;10055799;28;96846;-74
2022/11/14 02:00:12;;;;;;;4.38;0.93;;;;;;;14.42;100.00;100253.69;10055349;28;97414;-74
2022/11/14 02:05:17;;;;;;;2.35;0.98;;;;;;;14.41;100.00;100254.63;10054282;29;96926;-74
2022/11/14 02:10:22;;;;;;;3.08;1.08;;;;;;;14.43;100.00;100250.13;10055690;28;96710;-74
2022/11/14 02:15:26;;;;;;;;;;;;;;;14.33;100.00;100250.59;10055817;28;96736;-74
2022/11/14 02:20:35;;;;;;;2.88;1.40;;;;;;;14.32;100.00;100242.78;10055474;28;96821;-74
2022/11/14 02:25:39;;;;;;;9.68;1.60;;;;;;;14.30;100.00;100253.31;10066723;28;96710;-74
2022/11/14 02:30:42;;;;;;;8.63;1.90;;;;;;;14.27;100.00;100250.84;10095105;28;96776;-74
2022/11/14 02:35:47;;;;;;;4.47;1.40;;;;;;;14.26;100.00;100258.78;10093569;28;97391;-74
2022/11/14 02:40:50;;;;;;;3.38;1.23;;;;;;;14.27;100.00;100255.25;10093419;28;96691;-74
2022/11/14 02:45:53;;;;;;;2.85;0.90;;;;;;;14.27;100.00;100261.34;10091998;28;96849;-74
2022/11/14 02:50:58;;;;;;;6.95;1.30;;;;;;;14.26;100.00;100254.41;10093300;28;96746;-74
2022/11/14 02:56:01;;;;;;;5.72;1.10;;;;;;;14.22;100.00;100258.09;10092390;28;96699;-74
2022/11/14 03:01:04;;;;;;;5.68;1.10;;;;;;;14.18;100.00;100253.91;10070035;28;96750;-73
2022/11/14 03:06:24;;;;;;;5.18;0.80;;;;;;;14.10;100.00;100256.03;10054050;28;96779;-74
2022/11/14 03:11:27;;;;;;;3.25;0.93;;;;;;;14.08;100.00;100255.25;10053628;28;96781;-74
2022/11/14 03:16:30;;;;;;;4.63;1.30;;;;;;;14.03;100.00;100246.72;10054282;28;96708;-74
2022/11/14 03:21:35;;;;;;;3.80;0.80;;;;;;;13.94;100.00;100254.13;10053995;28;96923;-74
2022/11/14 03:26:38;;;;;;;1.98;0.98;;;;;;;13.96;100.00;100244.38;10053066;28;96752;-74
2022/11/14 03:31:41;;;;;;;4.28;0.80;;;;;;;14.00;100.00;100240.69;10052925;28;96619;-74
2022/11/14 03:36:46;;;;;;;4.25;0.82;;;;;;;13.84;100.00;100244.94;10052344;28;96824;-74
2022/11/14 03:41:49;;;;;;;4.43;1.05;;;;;;;13.83;100.00;100253.75;10065727;28;96722;-74
2022/11/14 03:46:52;;;;;;;5.15;0.95;;;;;;;13.79;100.00;100254.81;10130933;28;96630;-74
2022/11/14 03:51:57;;;;;;;2.38;0.88;;;;;;;13.73;100.00;100255.94;10107458;28;96861;-74
2022/11/14 03:57:00;;;;;;;2.58;0.70;;;;;;;13.82;100.00;100254.69;10091250;28;97251;-74
2022/11/14 04:02:03;;;;;;;4.63;1.00;;;;;;;13.71;100.00;100247.28;10091482;28;96663;-74
2022/11/14 04:07:08;;;;;;;3.67;1.08;;;;;;;13.58;100.00;100252.22;10090332;28;96817;-74
2022/11/14 04:12:11;;;;;;;2.70;0.55;;;;;;;13.39;100.00;100241.69;10092090;28;96544;-74
2022/11/14 04:17:18;;;;;;;6.13;1.20;;;;;;;13.37;100.00;100242.66;10091918;28;96793;-74
2022/11/14 04:22:22;;;;;;;8.98;1.17;;;;;;;13.24;100.00;100245.84;10091040;28;96740;-74
2022/11/14 04:27:25;;;;;;;2.25;0.90;;;;;;;13.33;100.00;100262.13;10088876;28;96873;-74
2022/11/14 04:32:29;;;;;;;5.78;1.48;;;;;;;13.30;100.00;100262.25;10090781;28;97017;-74
2022/11/14 04:37:33;;;;;;;6.10;1.17;;;;;;;13.40;100.00;100260.94;10090384;28;97468;-74
2022/11/14 04:42:36;;;;;;;4.97;1.13;;;;;;;13.50;100.00;100264.84;10089729;28;97218;-74
2022/11/14 04:47:41;;;;;;;2.97;1.05;;;;;;;13.58;100.00;100267.97;10089865;28;96636;-74
2022/11/14 04:52:45;;;;;;;;;;;;;;;13.55;100.00;100273.41;10090693;28;97107;-74
2022/11/14 04:57:54;;;;;;;6.95;1.80;;;;;;;13.58;100.00;100272.38;10090936;28;96791;-74
2022/11/14 05:02:59;;;;;;;7.85;1.55;;;;;;;13.60;100.00;100273.16;10097080;28;97670;-74
2022/11/14 05:08:03;;;;;;;44.30;3.58;;;;;;;13.59;100.00;100274.97;10096324;28;96774;-74
2022/11/14 05:13:06;;;;;;;14.73;2.53;;;;;;;13.60;100.00;100281.94;10096625;28;96788;-74
2022/11/14 05:18:10;;;;;;;2.90;1.40;;;;;;;13.62;100.00;100295.00;10094442;28;96743;-74
2022/11/14 05:23:19;;;;;;;3.63;1.50;;;;;;;13.59;100.00;100280.22;10096211;28;96816;-74
2022/11/14 05:28:22;;;;;;;4.30;1.55;;;;;;;13.54;100.00;100284.81;10095461;28;96868;-74
2022/11/14 05:33:25;;;;;;;4.35;1.85;;;;;;;13.59;100.00;100280.22;10094585;28;96876;-74
2022/11/14 05:38:30;;;;;;;3.13;1.60;;;;;;;13.60;100.00;100276.66;10095607;28;96782;-74
2022/11/14 05:43:34;;;;;;;1.95;1.20;;;;;;;13.57;100.00;100271.53;10095431;28;97056;-74
2022/11/14 05:48:38;;;;;;;5.28;2.00;;;;;;;13.43;100.00;100259.03;10094760;28;96772;-74
2022/11/14 05:53:42;;;;;;;4.65;2.50;;;;;;;13.43;100.00;100261.66;10096153;28;96811;-74
2022/11/14 05:58:46;;;;;;;5.13;2.00;;;;;;;13.47;100.00;100254.47;10094783;28;96892;-74
2022/11/14 06:03:49;;;;;;;5.10;2.10;;;;;;;13.47;100.00;100265.00;10095092;28;97285;-74
2022/11/14 06:08:53;;;;;;;6.07;2.20;;;;;;;13.45;100.00;100266.84;10092526;28;97263;-74
2022/11/14 06:13:57;;;;;;;8.50;2.38;;;;;;;13.41;100.00;100276.63;10094441;28;96926;-74
2022/11/14 06:19:00;;;;;;;7.47;2.33;;;;;;;13.29;100.00;100276.28;10094604;28;97109;-74
2022/11/14 06:24:05;;;;;;;4.47;2.10;;;;;;;13.21;100.00;100280.09;10093455;28;96667;-74
2022/11/14 06:29:10;;;;;;;8.05;2.72;;;;;;;13.26;100.00;100276.44;10093708;28;96964;-74
2022/11/14 06:34:13;;;;;;;10.02;3.50;;;;;;;13.36;100.00;100296.09;10094007;28;96702;-74
2022/11/14 06:39:17;;;;;;;4.07;1.80;;;;;;;13.40;100.00;100297.69;10093611;28;97088;-74
2022/11/14 06:44:21;;;;;;;7.03;2.42;;;;;;;13.39;100.00;100293.34;10094359;28;97725;-74
2022/11/14 06:49:31;;;;;;;14.85;3.53;;;;;;;13.37;100.00;100300.44;10123544;28;96676;-74
2022/11/14 06:54:43;;;;;;;3.90;1.63;;;;;;;13.33;100.00;100309.38;10132653;28;96777;-74
2022/11/14 06:59:46;;;;;;;7.90;1.95;;;;;;;13.32;100.00;100312.94;10072158;28;96945;-74
2022/11/14 07:04:50;;;;;;;5.75;1.80;;;;;;;13.28;100.00;100311.34;10053786;28;96913;-74
2022/11/14 07:09:55;;;;;;;7.45;1.70;;;;;;;13.27;100.00;100313.09;10053901;28;96704;-74
2022/11/14 07:14:58;;;;;;;7.22;2.00;;;;;;;13.27;100.00;100325.41;10054505;28;96784;-74
2022/11/14 07:20:01;;;;;;;9.60;1.80;;;;;;;13.26;100.00;100328.97;10052984;28;96981;-74
2022/11/14 07:25:07;;;;;;;6.10;2.10;;;;;;;13.31;100.00;100326.97;10053435;28;96608;-74
2022/11/14 07:30:11;;;;;;;4.50;2.45;;;;;;;13.29;100.00;100334.06;10053871;28;96801;-74
2022/11/14 07:35:14;;;;;;;14.57;3.93;;;;;;;13.32;100.00;100340.03;10054061;28;96972;-74
2022/11/14 07:40:19;;;;;;;28.52;5.30;;;;;;;13.31;100.00;100348.84;10073093;28;96778;-74
2022/11/14 07:45:22;;;;;;;56.10;4.88;;;;;;;13.31;100.00;100350.59;10131403;28;97092;-74
2022/11/14 07:50:27;;;;;;;46.55;4.65;;;;;;;13.27;100.00;100357.75;10097127;28;96791;-73
2022/11/14 07:55:32;;;;;;;27.80;4.28;;;;;;;13.26;100.00;100360.47;10091755;28;96720;-74
2022/11/14 08:00:35;;;;;;;7.45;3.10;;;;;;;13.29;100.00;100370.81;10091297;28;97331;-74
2022/11/14 08:05:38;;;;;;;16.98;3.67;;;;;;;13.30;100.00;100373.38;10090707;28;96752;-74
2022/11/14 08:10:43;;;;;;;7.53;3.08;;;;;;;13.28;100.00;100379.63;10091208;28;96731;-74
2022/11/14 08:15:46;;;;;;;8.40;3.45;;;;;;;13.33;100.00;100377.69;10091399;28;96639;-74
2022/11/14 08:20:49;;;;;;;9.45;3.60;;;;;;;13.43;100.00;100389.50;10090869;28;96743;-74
2022/11/14 08:25:54;;;;;;;6.32;3.42;;;;;;;13.51;100.00;100391.81;10090388;28;97308;-74
2022/11/14 08:31:00;;;;;;;7.00;2.63;;;;;;;13.58;100.00;100396.72;10091085;28;96727;-74
2022/11/14 08:36:04;;;;;;;4.57;2.67;;;;;;;13.57;100.00;100400.28;10097732;28;96983;-74
2022/11/14 08:41:08;;;;;;;7.50;2.47;;;;;;;13.66;100.00;100395.56;10095272;28;96770;-74
2022/11/14 08:46:12;;;;;;;5.63;2.70;;;;;;;13.75;100.00;100400.44;10096782;28;96993;-74
2022/11/14 08:51:15;;;;;;;6.80;2.33;;;;;;;13.95;100.00;100389.91;10097301;28;97117;-74
2022/11/14 08:56:19;;;;;;;4.82;2.35;;;;;;;14.24;100.00;100397.41;10086893;28;96711;-74
2022/11/14 09:01:22;;;;;;;3.53;1.80;;;;;;;14.46;100.00;100399.97;10057306;28;96684;-74
2022/11/14 09:06:26;;;;;;;5.22;1.80;;;;;;;14.57;100.00;100405.56;10057638;28;97052;-74
2022/11/14 09:11:30;;;;;;;6.05;1.70;;;;;;;14.52;100.00;100403.19;10057210;28;96742;-74
2022/11/14 09:16:33;;;;;;;5.22;1.63;;;;;;;14.56;100.00;100414.41;10058436;28;96759;-74
2022/11/14 09:21:36;;;;;;;5.50;1.75;;;;;;;14.62;100.00;100414.13;10056919;28;97082;-74
2022/11/14 09:26:41;;;;;;;2.60;1.40;;;;;;;14.55;100.00;100410.06;10056738;28;99145;-74
2022/11/14 09:31:44;;;;;;;3.85;1.60;;;;;;;14.66;100.00;100414.81;10056259;28;97273;-74
2022/11/14 09:36:47;;;;;;;2.92;1.58;;;;;;;14.75;100.00;100414.41;10056470;28;96801;-74
2022/11/14 09:42:06;;;;;;;2.40;1.50;;;;;;;14.67;100.00;100427.06;10116606;28;96825;-74
2022/11/14 09:47:20;;;;;;;4.97;1.77;;;;;;;14.89;100.00;100429.56;10124139;28;96677;-74
2022/11/14 09:52:31;;;;;;;5.22;1.90;;;;;;;15.15;100.00;100427.44;10095264;28;96638;-74
2022/11/14 09:57:35;;;;;;;7.78;2.17;;;;;;;15.28;100.00;100420.66;10094769;28;96734;-74
2022/11/14 10:02:46;;;;;;;4.05;1.67;;;;;;;15.39;100.00;100415.72;10095146;28;97053;-74
2022/11/14 10:08:03;;;;;;;3.72;1.40;;;;;;;15.46;100.00;100411.88;10094710;28;96767;-74
2022/11/14 10:13:23;;;;;;;3.28;1.45;;;;;;;15.61;100.00;100404.13;10094783;28;96756;-74
2022/11/14 10:18:40;;;;;;;3.83;1.33;;;;;;;15.61;100.00;100399.72;10094371;28;96864;-74
2022/11/14 10:23:54;;;;;;;3.97;1.70;;;;;;;15.60;100.00;100399.78;10092663;28;97285;-74
2022/11/14 10:29:22;;;;;;;5.53;1.63;;;;;;;15.68;100.00;100402.88;10094220;28;97516;-74
2022/11/14 10:34:31;;;;;;;5.93;1.55;;;;;;;15.70;100.00;100401.03;10093598;28;96686;-74
2022/11/14 10:39:40;;;;;;;3.28;1.40;;;;;;;15.75;100.00;100392.91;10086246;28;96855;-74
2022/11/14 10:44:51;;;;;;;5.30;1.70;;;;;;;15.73;100.00;100394.75;10093370;28;96599;-74
2022/11/14 10:49:58;;;;;;;5.10;1.25;;;;;;;15.88;100.00;100394.81;10093355;28;96758;-74
2022/11/14 10:55:07;;;;;;;6.53;1.17;;;;;;;16.07;100.00;100375.41;10091615;28;96785;-74
2022/11/14 11:00:15;;;;;;;4.40;1.05;;;;;;;16.14;100.00;100366.22;10093608;28;96779;-74
2022/11/14 11:05:21;;;;;;;8.23;1.90;;;;;;;16.25;100.00;100368.28;10093134;28;96835;-74
2022/11/14 11:29:07;;;;;;;5.80;2.40;;;;;;;17.38;100.00;100350.50;10461168;27;96600;-73
2022/11/14 11:34:10;;;;;;;4.30;2.35;;;;;;;17.46;100.00;100346.56;10458021;27;96779;-73
2022/11/14 11:39:23;;;;;;;7.18;2.50;;;;;;;17.55;100.00;100346.03;10457436;27;96824;-73
2022/11/14 11:44:35;;;;;;;4.93;2.17;;;;;;;17.42;100.00;100345.03;10457423;27;96719;-73
2022/11/14 11:49:45;;;;;;;4.82;2.67;;;;;;;17.28;100.00;100343.22;10457265;27;96711;-73
2022/11/14 11:55:03;;;;;;;5.03;2.67;;;;;;;17.13;100.00;100337.03;10457079;27;96973;-73
2022/11/14 12:00:16;;;;;;;6.25;2.50;;;;;;;16.80;100.00;100333.59;10457241;27;96532;-73
2022/11/14 12:05:29;;;;;;;5.78;2.20;;;;;;;16.60;100.00;100325.91;10456959;27;97162;-73
2022/11/14 12:10:36;;;;;;;6.28;2.03;;;;;;;16.30;100.00;100328.47;10456581;27;96675;-73
2022/11/14 12:15:52;;;;;;;3.25;1.80;;;;;;;16.21;100.00;100325.38;10456523;27;96691;-73
2022/11/14 12:21:11;;;;;;;5.55;2.03;;;;;;;16.08;100.00;100316.41;10456376;27;96737;-73
2022/11/14 12:26:33;;;;;;;4.47;1.75;;;;;;;16.03;100.00;100313.19;10447178;27;96789;-73
2022/11/14 12:31:39;;;;;;;5.75;1.83;;;;;;;16.14;100.00;100302.91;10428054;28;97300;-73
2022/11/14 12:36:45;;;;;;;3.75;1.60;;;;;;;16.34;100.00;100293.03;10427796;28;96662;-73
2022/11/14 12:41:48;;;;;;;3.03;1.35;;;;;;;16.47;100.00;100288.78;10427496;27;96707;-73
2022/11/14 12:47:18;;;;;;;5.00;1.40;;;;;;;16.52;100.00;100286.75;10427635;28;97054;-73
2022/11/14 12:52:47;;;;;;;4.68;1.50;;;;;;;16.58;100.00;100275.81;10427499;28;96779;-73
2022/11/14 12:58:03;;;;;;;6.07;1.38;;;;;;;16.63;100.00;100267.66;10426722;28;97406;-73
2022/11/14 13:03:32;;;;;;;5.28;1.50;;;;;;;16.75;100.00;100266.13;10427056;28;97179;-73
2022/11/14 13:09:02;;;;;;;5.22;1.50;;;;;;;16.97;100.00;100249.88;10427387;28;96705;-73
2022/11/14 13:25:19;;;;;;;4.38;1.42;;;;;;;16.87;100.00;100228.47;10426035;27;96933;-73
2022/11/14 13:30:52;;;;;;;5.70;1.25;;;;;;;17.04;100.00;100223.97;10426306;28;97278;-73
2022/11/14 13:36:03;;;;;;;3.58;1.00;;;;;;;17.58;100.00;100213.66;10425548;27;96845;-73
2022/11/14 13:41:27;;;;;;;3.60;1.20;;;;;;;17.16;100.00;100218.81;10424827;27;96824;-73
2022/11/14 13:47:08;;;;;;;3.65;1.48;;;;;;;16.73;100.00;100204.63;10425452;28;96646;-73
2022/11/14 13:52:14;;;;;;;4.72;1.60;;;;;;;16.60;100.00;100207.94;10383791;28;97123;-73
2022/11/14 13:57:29;;;;;;;4.80;1.65;;;;;;;16.43;100.00;100205.44;10383218;28;96853;-73
2022/11/14 14:02:56;;;;;;;4.72;1.60;;;;;;;16.49;100.00;100206.88;10383692;28;97291;-73
2022/11/14 14:08:14;;;;;;;3.45;2.00;;;;;;;16.68;100.00;100201.41;10410708;28;97580;-73
2022/11/14 14:13:30;;;;;;;8.07;2.03;;;;;;;16.86;100.00;100199.50;10424693;27;96812;-73
2022/11/14 14:18:45;;;;;;;6.15;1.80;;;;;;;16.75;100.00;100203.63;10424325;27;96792;-73
2022/11/14 14:23:59;;;;;;;6.90;1.97;;;;;;;16.63;100.00;100210.41;10423858;28;98294;-74
2022/11/14 14:29:15;;;;;;;9.10;2.63;;;;;;;16.52;100.00;100207.56;10424429;27;96856;-73
2022/11/14 14:34:23;;;;;;;5.07;2.30;;;;;;;16.99;100.00;100209.25;10423918;27;96679;-73
2022/11/14 14:39:29;;;;;;;6.95;2.83;;;;;;;17.79;100.00;100195.59;10423798;28;96765;-73
2022/11/14 14:44:37;;;;;;;5.45;1.88;;;;;;;18.06;100.00;100193.00;10423599;28;96911;-73
2022/11/14 14:49:40;;;;;;;6.55;2.30;;;;;;;17.89;100.00;100193.22;10423231;27;96726;-73
2022/11/14 14:54:54;;;;;;;4.30;1.95;;;;;;;17.44;100.00;100169.56;10423197;27;96701;-73
2022/11/14 15:00:01;;;;;;;5.77;2.53;;;;;;;17.24;100.00;100176.06;10381748;28;96835;-73
2022/11/14 15:05:05;;;;;;;7.45;3.35;;;;;;;17.10;100.00;100171.59;10381747;28;96676;-73
2022/11/14 15:10:19;;;;;;;;;;;;;;;16.99;100.00;100166.13;10381571;28;96663;-73
2022/11/14 15:15:25;;;;;;;6.13;2.58;;;;;;;17.32;100.00;100179.09;10411177;28;96735;-73
2022/11/14 15:20:29;;;;;;;5.38;2.25;;;;;;;17.53;100.00;100162.84;10422812;28;96886;-73
2022/11/14 15:25:34;;;;;;;6.68;2.20;;;;;;;17.53;100.00;100165.50;10422355;28;96722;-73
2022/11/14 15:30:38;;;;;;;7.93;2.47;;;;;;;17.59;100.00;100141.28;10422755;27;96756;-73
2022/11/14 15:35:41;;;;;;;7.70;3.03;;;;;;;17.51;100.00;100144.44;10422652;28;97045;-73
2022/11/14 15:41:10;;;;;;;6.28;3.75;;;;;;;17.46;100.00;100140.38;10422089;28;96769;-73
2022/11/14 15:46:41;;;;;;;10.55;5.95;;;;;;;17.10;100.00;100144.34;10422119;28;96650;-73
2022/11/14 15:51:47;;;;;;;9.60;4.72;;;;;;;16.97;100.00;100145.09;10420595;27;96890;-73
2022/11/14 15:56:52;;;;;;;7.20;3.67;;;;;;;16.75;100.00;100142.03;10421231;28;96852;-73
2022/11/14 16:01:58;;;;;;;7.35;3.90;;;;;;;16.51;100.00;100136.38;10424196;28;96765;-73
2022/11/14 16:07:02;;;;;;;8.15;3.58;;;;;;;16.41;100.00;100141.34;10428894;28;96611;-73
2022/11/14 16:12:07;;;;;;;8.18;3.60;;;;;;;16.26;100.00;100132.53;10428298;27;96702;-73
2022/11/14 16:17:13;;;;;;;8.57;3.28;;;;;;;16.11;100.00;100128.97;10428276;27;96832;-73
2022/11/14 16:22:18;;;;;;;6.68;2.85;;;;;;;15.99;100.00;100124.41;10428259;27;96695;-73
2022/11/14 16:27:22;;;;;;;6.55;2.60;;;;;;;15.96;100.00;100128.03;10427219;27;96869;-73
2022/11/14 16:32:27;;;;;;;6.05;2.85;;;;;;;15.91;100.00;100119.53;10427804;28;96928;-73
2022/11/14 16:37:30;;;;;;;5.88;2.67;;;;;;;15.79;100.00;100121.09;10426965;28;96829;-73
2022/11/14 16:42:34;;;;;;;8.00;3.08;;;;;;;15.80;100.00;100114.88;10427695;27;96812;-73
2022/11/14 16:47:39;;;;;;;7.55;3.40;;;;;;;15.78;100.00;100122.03;10427675;27;97300;-73
2022/11/14 16:52:42;;;;;;;9.45;3.65;;;;;;;15.77;100.00;100115.06;10427507;27;96890;-73
2022/11/14 16:57:47;;;;;;;11.85;4.95;;;;;;;15.82;100.00;100117.44;10427045;28;97057;-73
2022/11/14 17:02:51;;;;;;;8.82;4.72;;;;;;;15.81;100.00;100128.94;10426660;27;97001;-73
2022/11/14 17:07:56;;;;;;;8.93;5.43;;;;;;;15.78;100.00;100119.38;10426851;28;96691;-73
2022/11/14 17:13:00;;;;;;;7.43;4.05;;;;;;;15.76;100.00;100129.19;10426296;27;96778;-73
2022/11/14 17:18:04;;;;;;;8.43;4.70;;;;;;;15.69;100.00;100133.09;10426562;28;96735;-73
2022/11/14 17:23:07;;;;;;;8.57;5.13;;;;;;;15.63;100.00;100133.41;10427162;28;97187;-73
2022/11/14 17:28:12;;;;;;;9.23;5.10;;;;;;;15.55;100.00;100127.66;10425460;28;96685;-73
2022/11/14 17:33:15;;;;;;;12.55;5.78;;;;;;;15.54;100.00;100137.38;10425700;27;96717;-73
2022/11/14 17:38:18;;;;;;;9.40;5.35;;;;;;;15.57;100.00;100141.63;10425672;28;96973;-73
2022/11/14 17:43:23;;;;;;;8.98;5.13;;;;;;;15.52;100.00;100131.34;10425898;28;96576;-73
2022/11/14 17:48:26;;;;;;;10.95;5.63;;;;;;;15.53;100.00;100132.19;10424002;28;96708;-73
2022/11/14 17:53:30;;;;;;;8.73;5.68;;;;;;;15.47;100.00;100128.09;10425337;27;96585;-73
2022/11/14 17:58:35;;;;;;;12.68;6.55;;;;;;;15.44;100.00;100129.13;10425030;27;96607;-73
2022/11/14 18:03:38;;;;;;;11.98;6.68;;;;;;;15.40;100.00;100130.22;10425436;28;97134;-73
2022/11/14 18:08:42;;;;;;;14.77;7.53;;;;;;;15.37;100.00;100127.72;10424905;27;96734;-73
2022/11/14 18:13:46;;;;;;;13.63;8.20;;;;;;;15.34;100.00;100133.19;10424867;28;97131;-73
2022/11/14 18:18:50;;;;;;;13.30;7.35;;;;;;;15.30;100.00;100137.78;10424347;28;97620;-73
2022/11/14 18:23:55;;;;;;;23.85;13.88;;;;;;;15.29;100.00;100145.75;10423217;28;96967;-73
2022/11/14 18:29:00;;;;;;;;;;;;;;;15.26;100.00;100145.91;10423608;28;96687;-73
2022/11/14 18:34:04;;;;;;;;;;;;;;;15.16;100.00;100149.97;10424806;28;96667;-73
2022/11/14 18:39:07;;;;;;;30.95;17.75;;;;;;;15.10;100.00;100145.88;10423876;28;96848;-73
2022/11/14 18:44:12;;;;;;;22.80;13.50;;;;;;;15.00;100.00;100144.66;10422270;27;96704;-73
2022/11/14 18:49:15;;;;;;;19.83;11.70;;;;;;;14.84;100.00;100149.88;10421409;27;96793;-73
2022/11/14 18:54:18;;;;;;;18.80;11.65;;;;;;;14.80;100.00;100156.19;10421825;28;96857;-73
2022/11/14 18:59:23;;;;;;;25.75;14.23;;;;;;;14.84;100.00;100155.13;10421531;27;97505;-73
2022/11/14 19:04:26;;;;;;;17.15;10.80;;;;;;;14.84;100.00;100168.31;10421620;27;96832;-73
2022/11/14 19:09:30;;;;;;;28.77;17.83;;;;;;;14.86;100.00;100155.91;10421725;28;97347;-72
2022/11/14 19:14:35;;;;;;;28.30;18.65;;;;;;;14.81;100.00;100157.91;10421034;27;96780;-73
2022/11/14 19:19:38;;;;;;;26.08;16.50;;;;;;;14.85;100.00;100148.91;10421207;28;97098;-73
2022/11/14 19:24:42;;;;;;;25.38;15.07;;;;;;;14.84;100.00;100144.59;10420524;28;96837;-73
2022/11/14 19:29:47;;;;;;;25.58;16.70;;;;;;;14.71;100.00;100139.97;10421070;28;96848;-73
2022/11/14 19:34:50;;;;;;;24.63;15.57;;;;;;;14.66;100.00;100139.34;10421033;28;96643;-73
2022/11/14 19:39:54;;;;;;;24.02;15.00;;;;;;;14.66;100.00;100136.72;10427739;28;96838;-73
2022/11/14 19:44:58;;;;;;;21.73;14.30;;;;;;;14.64;100.00;100128.03;10428481;28;97310;-73
2022/11/14 19:50:02;;;;;;;24.33;13.82;;;;;;;14.60;100.00;100129.13;10428221;27;96687;-72
2022/11/14 19:55:05;;;;;;;24.65;14.23;;;;;;;14.63;100.00;100105.28;10427572;27;96935;-73
2022/11/14 20:00:11;;;;;;;21.40;13.30;;;;;;;14.65;100.00;100092.91;10427860;28;96727;-73
2022/11/14 20:05:14;;;;;;;23.88;13.52;;;;;;;14.52;100.00;100082.16;10426211;27;96631;-73
2022/11/14 20:10:18;;;;;;;19.42;12.80;;;;;;;14.47;100.00;100072.78;10426801;28;96878;-73
2022/11/14 20:15:22;;;;;;;17.92;12.20;;;;;;;14.44;100.00;100068.53;10426136;27;96569;-73
2022/11/14 20:20:25;;;;;;;17.27;10.07;;;;;;;14.41;100.00;100073.94;10425785;28;96762;-73
2022/11/14 20:25:29;;;;;;;18.05;9.88;;;;;;;14.39;100.00;100081.06;10425068;27;96873;-73
2022/11/14 20:30:33;;;;;;;15.55;10.00;;;;;;;14.35;100.00;100069.88;10426413;27;96858;-72
2022/11/14 20:35:37;;;;;;;15.75;9.65;;;;;;;14.37;100.00;100090.84;10425151;27;96847;-72
2022/11/14 20:40:40;;;;;;;20.73;10.77;;;;;;;14.40;100.00;100081.91;10425919;27;96728;-72
2022/11/14 20:45:55;;;;;;;20.67;10.57;;;;;;;14.48;100.00;100085.84;10425140;27;97148;-73
2022/11/14 20:51:04;;;;;;;17.30;11.07;;;;;;;14.53;100.00;100085.63;10425051;28;96735;-73
2022/11/14 20:56:07;;;;;;;20.27;10.75;;;;;;;14.53;100.00;100093.53;10424013;27;96925;-73
2022/11/14 21:01:12;;;;;;;17.45;10.27;;;;;;;14.52;100.00;100094.44;10425048;28;96738;-73
2022/11/14 21:06:16;;;;;;;22.83;11.35;;;;;;;14.49;100.00;100090.22;10424393;28;96835;-73
2022/11/14 21:11:21;;;;;;;11.80;6.53;;;;;;;14.50;100.00;100099.78;10424489;28;97038;-73
2022/11/14 21:16:30;;;;;;;10.23;5.75;;;;;;;14.54;100.00;100097.84;10424048;27;96716;-73
2022/11/14 21:21:35;;;;;;;10.57;5.82;;;;;;;14.56;100.00;100081.06;10424840;27;96671;-73
2022/11/14 21:26:40;;;;;;;11.98;5.07;;;;;;;14.63;100.00;100076.34;10424012;27;96986;-73
2022/11/14 21:31:46;;;;;;;7.50;3.37;;;;;;;14.61;100.00;100072.94;10424522;28;96668;-73
2022/11/14 21:36:49;;;;;;;10.73;6.40;;;;;;;14.54;100.00;100079.44;10424063;28;96880;-73
2022/11/14 21:41:53;;;;;;;10.30;5.53;;;;;;;14.51;100.00;100075.19;10424007;27;96965;-73
2022/11/14 21:46:57;;;;;;;11.10;5.00;;;;;;;14.48;100.00;100074.50;10423961;28;96705;-73
2022/11/14 21:52:00;;;;;;;6.60;4.47;;;;;;;14.48;100.00;100053.44;10424601;27;96743;-73
2022/11/14 21:57:04;;;;;;;7.25;3.25;;;;;;;14.51;100.00;100042.78;10422706;27;96604;-73
2022/11/14 22:07:34;;;;;;;6.93;2.97;;;;;;;14.45;100.00;100043.91;10422316;27;96816;-73
2022/11/14 22:12:38;;;;;;;6.03;2.83;;;;;;;14.48;100.00;100037.66;10422766;28;96882;-73
2022/11/14 22:17:42;;;;;;;10.15;3.00;;;;;;;14.51;100.00;100038.34;10422210;28;97043;-73
2022/11/14 22:22:45;;;;;;;6.22;2.92;;;;;;;14.58;100.00;100045.94;10422742;28;97420;-73
2022/11/14 22:27:49;;;;;;;8.38;2.92;;;;;;;14.57;100.00;100018.75;10422125;28;96938;-73
2022/11/14 22:32:53;;;;;;;7.22;3.25;;;;;;;14.55;100.00;100023.25;10422510;28;96621;-73
2022/11/14 22:37:56;;;;;;;5.32;2.97;;;;;;;14.55;100.00;100016.19;10421443;27;96829;-73
2022/11/14 22:43:00;;;;;;;9.52;3.53;;;;;;;14.57;100.00;100008.22;10422720;28;96705;-73
2022/11/14 22:48:05;;;;;;;7.70;3.15;;;;;;;14.58;100.00;99991.53;10421996;28;96681;-73
2022/11/14 22:53:08;;;;;;;8.88;4.05;;;;;;;14.54;100.00;99974.19;10421623;28;96765;-73
2022/11/14 22:58:11;;;;;;;7.38;2.83;;;;;;;14.51;100.00;99974.38;10420598;27;96749;-73
2022/11/14 23:03:18;;;;;;;7.63;2.78;;;;;;;14.49;100.00;99969.19;10421368;27;97157;-73
2022/11/14 23:08:22;;;;;;;4.60;2.28;;;;;;;14.53;100.00;99972.50;10420838;28;96670;-73
2022/11/14 23:13:26;;;;;;;5.20;1.85;;;;;;;14.62;100.00;99961.47;10420882;28;96587;-73
2022/11/14 23:18:30;;;;;;;3.55;1.40;;;;;;;14.68;100.00;99960.28;10421045;28;96914;-73
2022/11/14 23:23:34;;;;;;;3.92;1.55;;;;;;;14.64;100.00;99964.03;10420940;27;96789;-73
2022/11/14 23:28:38;;;;;;;5.80;2.08;;;;;;;14.58;100.00;99965.22;10420110;28;96799;-72
2022/11/14 23:33:42;;;;;;;2.57;0.97;;;;;;;14.55;100.00;99970.63;10421540;28;96759;-73
2022/11/14 23:38:46;;;;;;;3.05;1.60;;;;;;;14.59;100.00;99963.41;10420987;27;96834;-73
2022/11/14 23:43:49;;;;;;;3.38;0.93;;;;;;;14.63;100.00;99957.91;10420415;28;96775;-72
2022/11/14 23:48:54;;;;;;;5.28;1.30;;;;;;;14.52;100.00;99945.34;10418713;28;96648;-73